createdAt,value
2019-06-26T00:02:08.447Z,7.33
2019-06-26T00:04:35.902Z,7.33
2019-06-26T00:07:03.381Z,8.47
2019-06-26T00:09:30.834Z,8.25
2019-06-26T00:11:58.301Z,7.70
2019-06-26T00:14:25.783Z,7.90
2019-06-26T00:16:53.216Z,8.00
2019-06-26T00:19:20.647Z,8.10
2019-06-26T00:21:48.286Z,7.47
2019-06-26T00:24:15.847Z,8.00
2019-06-26T00:26:43.276Z,7.80
2019-06-26T00:29:10.729Z,8.20
2019-06-26T00:31:38.156Z,8.35
2019-06-26T00:34:05.597Z,9.18
2019-06-26T00:36:33.042Z,8.67
2019-06-26T00:39:00.517Z,9.20
2019-06-26T00:41:27.962Z,8.93
2019-06-26T00:43:55.447Z,10.48
2019-06-26T00:46:22.900Z,9.10
2019-06-26T00:48:50.365Z,10.57
2019-06-26T00:51:17.784Z,10.77
2019-06-26T00:53:45.251Z,10.70
2019-06-26T00:56:12.721Z,11.52
2019-06-26T00:58:40.143Z,12.47
2019-06-26T01:01:07.591Z,10.95
2019-06-26T01:03:35.016Z,10.40
2019-06-26T01:06:02.486Z,11.60
2019-06-26T01:08:29.931Z,11.10
2019-06-26T01:10:58.061Z,13.75
2019-06-26T01:13:25.514Z,14.03
2019-06-26T01:15:52.983Z,13.20
2019-06-26T01:18:20.466Z,12.87
2019-06-26T01:20:47.950Z,13.80
2019-06-26T01:23:15.403Z,13.85
2019-06-26T01:25:42.871Z,13.70
2019-06-26T01:28:10.291Z,13.88
2019-06-26T01:30:37.758Z,13.13
2019-06-26T01:33:05.210Z,13.37
2019-06-26T01:35:32.667Z,14.27
2019-06-26T01:38:00.106Z,14.10
2019-06-26T01:40:27.575Z,14.23
2019-06-26T01:42:55.007Z,15.00
2019-06-26T01:45:22.449Z,14.73
2019-06-26T01:47:49.878Z,14.83
2019-06-26T01:50:17.343Z,15.27
2019-06-26T01:52:44.828Z,16.33
2019-06-26T01:55:12.294Z,15.87
2019-06-26T01:57:39.762Z,16.87
2019-06-26T02:00:07.971Z,15.87
2019-06-26T02:02:36.280Z,16.00
2019-06-26T02:05:03.793Z,15.67
2019-06-26T02:07:31.227Z,14.82
2019-06-26T02:09:59.457Z,14.82
2019-06-26T02:12:26.889Z,15.30
2019-06-26T02:14:54.387Z,16.90
2019-06-26T02:17:21.827Z,15.82
2019-06-26T02:19:49.347Z,15.67
2019-06-26T02:22:16.738Z,15.00
2019-06-26T02:24:45.735Z,13.27
2019-06-26T02:27:13.338Z,13.50
2019-06-26T02:29:40.869Z,11.97
2019-06-26T02:32:08.331Z,12.80
2019-06-26T02:34:35.767Z,13.67
2019-06-26T02:37:03.267Z,12.57
2019-06-26T02:39:30.819Z,12.13
2019-06-26T02:41:58.408Z,12.60
2019-06-26T02:44:25.970Z,13.30
2019-06-26T02:46:54.555Z,12.57
2019-06-26T02:49:22.070Z,12.60
2019-06-26T02:51:49.637Z,12.17
2019-06-26T02:54:17.279Z,12.00
2019-06-26T02:56:45.170Z,13.35
2019-06-26T02:59:13.183Z,12.47
2019-06-26T03:01:41.727Z,12.70
2019-06-26T03:04:09.324Z,14.27
2019-06-26T03:06:37.126Z,11.83
2019-06-26T03:09:14.183Z,12.73
2019-06-26T03:11:42.410Z,11.73
2019-06-26T03:16:43.048Z,12.03
2019-06-26T03:19:10.974Z,12.45
2019-06-26T03:21:41.209Z,13.00
2019-06-26T03:24:09.268Z,12.45
2019-06-26T03:26:37.046Z,13.18
2019-06-26T03:29:05.538Z,13.30
2019-06-26T03:31:33.705Z,13.65
2019-06-26T03:34:02.393Z,13.80
2019-06-26T03:36:30.741Z,13.13
2019-06-26T03:38:59.338Z,13.40
2019-06-26T03:41:27.849Z,15.07
2019-06-26T03:43:56.015Z,15.18
2019-06-26T03:46:23.780Z,15.30
2019-06-26T03:48:51.424Z,15.07
2019-06-26T03:51:19.319Z,14.67
2019-06-26T03:53:47.812Z,15.47
2019-06-26T03:56:15.484Z,15.50
2019-06-26T03:58:43.662Z,20.40
2019-06-26T04:01:11.724Z,17.85
2019-06-26T04:03:39.855Z,20.90
2019-06-26T04:06:07.631Z,22.75
2019-06-26T04:08:35.794Z,25.40
2019-06-26T04:11:04.554Z,28.77
2019-06-26T04:13:32.791Z,30.12
2019-06-26T04:16:01.080Z,31.17
2019-06-26T04:18:29.280Z,29.63
2019-06-26T04:20:57.795Z,27.63
2019-06-26T04:23:25.644Z,25.88
2019-06-26T04:25:53.662Z,22.97
2019-06-26T04:28:23.283Z,20.97
2019-06-26T04:30:51.181Z,20.50
2019-06-26T04:33:19.330Z,21.85
2019-06-26T04:35:47.546Z,23.50
2019-06-26T04:38:15.615Z,22.17
2019-06-26T04:40:44.677Z,25.50
2019-06-26T04:43:13.623Z,26.70
2019-06-26T04:45:57.290Z,32.03
2019-06-26T04:48:12.586Z,37.07
2019-06-26T04:50:41.577Z,37.63
2019-06-26T04:53:09.602Z,40.83
2019-06-26T04:55:37.891Z,39.97
2019-06-26T04:58:08.378Z,40.00
2019-06-26T05:00:36.348Z,39.73
2019-06-26T05:03:04.379Z,42.57
2019-06-26T05:05:39.714Z,39.25
2019-06-26T05:08:01.630Z,40.03
2019-06-26T05:10:29.466Z,44.45
2019-06-26T05:12:57.715Z,40.20
2019-06-26T05:15:25.483Z,42.35
2019-06-26T05:17:53.620Z,42.27
2019-06-26T05:20:21.496Z,41.47
2019-06-26T05:22:49.392Z,42.40
2019-06-26T05:25:17.372Z,44.17
2019-06-26T05:27:45.196Z,43.77
2019-06-26T05:30:13.243Z,43.30
2019-06-26T05:32:40.936Z,41.60
2019-06-26T05:35:08.998Z,40.60
2019-06-26T05:37:38.745Z,40.53
2019-06-26T05:40:09.451Z,40.57
2019-06-26T05:42:37.713Z,41.53
2019-06-26T05:45:05.428Z,39.97
2019-06-26T05:47:33.563Z,39.90
2019-06-26T05:50:01.477Z,39.80
2019-06-26T05:52:29.430Z,41.33
2019-06-26T05:54:57.486Z,41.10
2019-06-26T05:57:25.541Z,42.57
2019-06-26T05:59:53.442Z,41.13
2019-06-26T06:02:21.352Z,41.72
2019-06-26T06:04:51.162Z,41.03
2019-06-26T06:07:19.414Z,40.23
2019-06-26T06:09:48.392Z,45.33
2019-06-26T06:12:17.714Z,41.10
2019-06-26T06:14:45.496Z,39.40
2019-06-26T06:17:13.278Z,40.20
2019-06-26T06:19:41.302Z,40.25
2019-06-26T06:22:09.237Z,39.88
2019-06-26T06:24:37.272Z,40.73
2019-06-26T06:27:05.359Z,39.20
2019-06-26T06:29:35.351Z,31.77
2019-06-26T06:32:03.333Z,36.10
2019-06-26T06:34:31.219Z,37.07
2019-06-26T06:36:59.024Z,36.33
2019-06-26T06:39:31.345Z,38.30
2019-06-26T06:41:59.421Z,30.70
2019-06-26T06:44:27.537Z,34.77
2019-06-26T06:47:03.872Z,36.42
2019-06-26T06:49:23.461Z,35.13
2019-06-26T06:51:52.343Z,29.00
2019-06-26T06:54:20.217Z,29.93
2019-06-26T06:56:48.348Z,32.80
2019-06-26T06:59:16.216Z,30.50
2019-06-26T07:01:44.009Z,28.77
2019-06-26T07:04:12.444Z,30.50
2019-06-26T07:06:40.753Z,28.25
2019-06-26T07:09:08.760Z,26.90
2019-06-26T07:11:37.206Z,23.27
2019-06-26T07:14:04.928Z,28.00
2019-06-26T07:16:33.007Z,23.03
2019-06-26T07:19:00.746Z,20.07
2019-06-26T07:21:28.841Z,24.83
2019-06-26T07:23:57.094Z,25.67
2019-06-26T07:26:25.065Z,27.13
2019-06-26T07:28:52.763Z,27.73
2019-06-26T07:31:20.856Z,25.70
2019-06-26T07:33:48.772Z,27.52
2019-06-26T07:36:16.952Z,24.87
2019-06-26T07:38:46.080Z,25.77
2019-06-26T07:41:15.563Z,24.67
2019-06-26T07:43:43.356Z,21.00
2019-06-26T07:46:12.618Z,21.40
2019-06-26T07:48:40.434Z,24.07
2019-06-26T07:51:11.645Z,23.93
2019-06-26T07:53:39.150Z,22.67
2019-06-26T07:56:07.386Z,22.48
2019-06-26T07:58:35.285Z,23.03
2019-06-26T08:01:03.230Z,21.80
2019-06-26T08:03:31.071Z,24.40
2019-06-26T08:05:59.276Z,23.00
2019-06-26T08:08:27.155Z,21.90
2019-06-26T08:10:55.016Z,21.93
2019-06-26T08:13:22.669Z,19.90
2019-06-26T08:15:51.261Z,20.33
2019-06-26T08:18:19.621Z,19.43
2019-06-26T08:21:00.713Z,16.65
2019-06-26T08:23:16.142Z,17.60
2019-06-26T08:25:44.140Z,17.35
2019-06-26T08:28:12.221Z,17.00
2019-06-26T08:30:40.221Z,13.77
2019-06-26T08:33:08.203Z,17.17
2019-06-26T08:35:36.005Z,16.50
2019-06-26T08:38:10.192Z,12.03
2019-06-26T08:40:32.244Z,11.23
2019-06-26T08:43:00.192Z,13.20
2019-06-26T08:45:28.283Z,10.25
2019-06-26T08:47:57.008Z,13.03
2019-06-26T08:50:24.922Z,12.30
2019-06-26T08:52:52.708Z,13.13
2019-06-26T08:55:20.177Z,15.07
2019-06-26T08:57:48.060Z,13.20
2019-06-26T09:00:15.646Z,14.38
2019-06-26T09:02:43.244Z,13.10
2019-06-26T09:05:10.976Z,13.02
2019-06-26T09:07:38.610Z,13.70
2019-06-26T09:10:07.211Z,12.03
2019-06-26T09:12:35.061Z,12.23
2019-06-26T09:15:02.934Z,11.00
2019-06-26T09:17:30.900Z,15.63
2019-06-26T09:19:59.234Z,13.70
2019-06-26T09:22:28.163Z,11.77
2019-06-26T09:24:55.946Z,13.27
2019-06-26T09:27:23.539Z,15.93
2019-06-26T09:29:51.457Z,15.07
2019-06-26T09:32:19.037Z,11.38
2019-06-26T09:34:46.870Z,16.10
2019-06-26T09:37:14.488Z,13.80
2019-06-26T09:39:42.430Z,14.57
2019-06-26T09:42:10.047Z,13.40
2019-06-26T09:44:38.653Z,13.13
2019-06-26T09:47:06.546Z,13.27
2019-06-26T09:49:34.041Z,16.17
2019-06-26T09:52:02.091Z,14.67
2019-06-26T09:54:29.907Z,13.97
2019-06-26T09:56:57.545Z,17.53
2019-06-26T09:59:25.014Z,19.12
2019-06-26T10:01:54.182Z,14.30
2019-06-26T10:04:21.887Z,16.25
2019-06-26T10:06:49.924Z,13.57
2019-06-26T10:09:17.750Z,14.38
2019-06-26T10:11:45.934Z,14.37
2019-06-26T10:14:14.847Z,13.17
2019-06-26T10:16:42.615Z,13.77
2019-06-26T10:19:11.042Z,13.13
2019-06-26T10:21:38.826Z,14.77
2019-06-26T10:24:07.305Z,16.43
2019-06-26T10:26:35.202Z,15.93
2019-06-26T10:29:02.861Z,15.13
2019-06-26T10:31:30.601Z,18.97
2019-06-26T10:33:58.803Z,19.17
2019-06-26T10:36:26.465Z,14.03
2019-06-26T10:38:54.474Z,15.77
2019-06-26T10:41:22.921Z,17.87
2019-06-26T10:43:51.268Z,21.15
2019-06-26T10:46:19.098Z,21.62
2019-06-26T10:48:49.844Z,21.37
2019-06-26T10:51:17.440Z,23.25
2019-06-26T10:53:44.890Z,16.33
2019-06-26T10:56:12.694Z,27.17
2019-06-26T10:58:40.919Z,19.50
2019-06-26T11:01:08.567Z,19.37
2019-06-26T11:03:36.566Z,17.17
2019-06-26T11:06:04.622Z,23.10
2019-06-26T11:08:33.886Z,19.47
2019-06-26T11:11:02.071Z,20.00
2019-06-26T11:13:30.726Z,19.57
2019-06-26T11:15:58.609Z,20.70
2019-06-26T11:18:26.458Z,16.45
2019-06-26T11:20:56.275Z,19.37
2019-06-26T11:23:25.212Z,28.62
2019-06-26T11:25:52.769Z,20.67
2019-06-26T11:28:21.266Z,23.55
2019-06-26T11:30:48.985Z,27.17
2019-06-26T11:33:16.666Z,28.85
2019-06-26T11:35:47.161Z,25.20
2019-06-26T11:38:14.654Z,20.33
2019-06-26T11:40:42.935Z,24.87
2019-06-26T11:43:11.726Z,21.20
2019-06-26T11:45:39.791Z,20.73
2019-06-26T11:48:08.143Z,22.42
2019-06-26T11:50:36.726Z,17.00
2019-06-26T11:53:04.828Z,15.17
2019-06-26T11:55:36.727Z,17.03
2019-06-26T11:58:04.932Z,19.67
2019-06-26T12:00:32.727Z,18.13
2019-06-26T12:03:01.155Z,13.90
2019-06-26T12:05:28.911Z,10.95
2019-06-26T12:07:57.033Z,11.75
2019-06-26T12:10:24.942Z,15.48
2019-06-26T12:12:52.993Z,9.82
2019-06-26T12:15:20.756Z,11.03
2019-06-26T12:17:48.634Z,10.67
2019-06-26T12:20:19.076Z,13.55
2019-06-26T12:22:44.089Z,11.43
2019-06-26T12:25:12.361Z,14.13
2019-06-26T12:27:40.272Z,12.13
2019-06-26T12:30:08.299Z,13.03
2019-06-26T12:32:42.167Z,22.43
2019-06-26T12:35:05.169Z,16.63
2019-06-26T12:37:37.678Z,15.63
2019-06-26T12:40:01.101Z,12.90
2019-06-26T12:42:28.613Z,12.07
2019-06-26T12:44:56.515Z,14.43
2019-06-26T12:47:24.180Z,17.10
2019-06-26T12:49:52.343Z,18.30
2019-06-26T12:52:20.806Z,17.37
2019-06-26T12:54:48.353Z,15.13
2019-06-26T12:57:16.032Z,21.63
2019-06-26T12:59:56.930Z,19.60
2019-06-26T13:02:11.445Z,16.80
2019-06-26T13:04:39.459Z,16.63
2019-06-26T13:07:07.079Z,16.93
2019-06-26T13:09:34.553Z,16.53
2019-06-26T13:12:02.262Z,18.53
2019-06-26T13:14:29.993Z,16.47
2019-06-26T13:16:57.521Z,27.33
2019-06-26T13:19:25.027Z,23.45
2019-06-26T13:21:52.608Z,17.87
2019-06-26T13:24:20.432Z,23.33
2019-06-26T13:26:48.024Z,23.53
2019-06-26T13:29:17.606Z,17.07
2019-06-26T13:31:45.594Z,19.63
2019-06-26T13:34:13.623Z,21.27
2019-06-26T13:36:42.117Z,20.40
2019-06-26T13:39:10.090Z,17.47
2019-06-26T13:41:38.776Z,15.30
2019-06-26T13:44:06.297Z,16.80
2019-06-26T13:46:34.033Z,16.93
2019-06-26T13:49:01.709Z,17.13
2019-06-26T13:51:29.435Z,15.27
2019-06-26T13:53:57.125Z,13.60
2019-06-26T13:56:26.213Z,12.85
2019-06-26T13:58:53.727Z,12.73
2019-06-26T14:01:23.105Z,12.20
2019-06-26T14:03:50.417Z,15.85
2019-06-26T14:06:18.165Z,16.40
2019-06-26T14:08:45.905Z,17.17
2019-06-26T14:11:14.494Z,14.53
2019-06-26T14:13:42.565Z,18.03
2019-06-26T14:16:10.862Z,15.63
2019-06-26T14:18:38.332Z,22.73
2019-06-26T14:21:06.341Z,18.37
2019-06-26T14:23:37.650Z,17.33
2019-06-26T14:26:02.518Z,14.13
2019-06-26T14:28:31.512Z,15.73
2019-06-26T14:30:59.212Z,14.73
2019-06-26T14:33:27.429Z,15.20
2019-06-26T14:35:55.309Z,20.40
2019-06-26T14:38:22.914Z,18.48
2019-06-26T14:40:50.507Z,16.93
2019-06-26T14:43:18.312Z,15.30
2019-06-26T14:45:45.997Z,14.63
2019-06-26T14:48:14.033Z,14.97
2019-06-26T14:50:42.028Z,15.63
2019-06-26T14:53:09.761Z,14.13
2019-06-26T14:55:37.347Z,11.43
2019-06-26T14:58:05.195Z,13.43
2019-06-26T15:00:33.153Z,12.80
2019-06-26T15:03:01.271Z,12.97
2019-06-26T15:05:28.901Z,14.80
2019-06-26T15:07:56.743Z,14.00
2019-06-26T15:10:24.307Z,12.05
2019-06-26T15:12:52.767Z,15.00
2019-06-26T15:15:20.370Z,13.37
2019-06-26T15:17:48.122Z,14.27
2019-06-26T15:20:16.875Z,11.67
2019-06-26T15:22:44.488Z,12.63
2019-06-26T15:25:12.008Z,13.50
2019-06-26T15:27:40.498Z,11.57
2019-06-26T15:30:08.177Z,11.73
2019-06-26T15:32:35.784Z,12.43
2019-06-26T15:35:04.448Z,12.23
2019-06-26T15:37:32.275Z,11.43
2019-06-26T15:39:59.992Z,10.53
2019-06-26T15:42:27.711Z,13.73
2019-06-26T15:44:55.955Z,13.97
2019-06-26T15:47:23.743Z,11.90
2019-06-26T15:49:51.469Z,12.00
2019-06-26T15:52:19.741Z,11.27
2019-06-26T15:54:47.310Z,10.37
2019-06-26T15:57:17.487Z,10.20
2019-06-26T15:59:45.286Z,11.87
2019-06-26T16:02:12.901Z,11.13
2019-06-26T16:04:41.497Z,10.80
2019-06-26T16:07:09.465Z,9.30
2019-06-26T16:09:37.300Z,9.93
2019-06-26T16:12:05.086Z,9.63
2019-06-26T16:14:32.859Z,8.73
2019-06-26T16:17:15.998Z,9.50
2019-06-26T16:19:44.127Z,7.90
2019-06-26T16:22:11.618Z,8.63
2019-06-26T16:24:39.390Z,9.60
2019-06-26T16:27:07.919Z,8.63
2019-06-26T16:29:36.441Z,8.83
2019-06-26T16:32:04.186Z,8.50
2019-06-26T16:34:32.940Z,8.30
2019-06-26T16:37:00.672Z,8.50
2019-06-26T16:39:28.842Z,8.73
2019-06-26T16:41:57.092Z,8.13
2019-06-26T16:44:24.790Z,8.20
2019-06-26T16:46:53.168Z,7.40
2019-06-26T16:49:23.540Z,8.70
2019-06-26T16:51:51.686Z,7.60
2019-06-26T16:54:21.123Z,8.07
2019-06-26T16:56:49.649Z,7.80
2019-06-26T16:59:17.711Z,7.73
2019-06-26T17:01:46.684Z,7.73
2019-06-26T17:04:14.373Z,8.53
2019-06-26T17:06:42.255Z,8.00
2019-06-26T17:09:09.813Z,8.97
2019-06-26T17:11:37.847Z,8.00
2019-06-26T17:14:08.143Z,8.67
2019-06-26T17:16:37.291Z,10.55
2019-06-26T17:19:05.258Z,8.30
2019-06-26T17:21:33.254Z,9.90
2019-06-26T17:24:00.820Z,9.87
2019-06-26T17:26:28.661Z,10.63
2019-06-26T17:28:57.189Z,10.50
2019-06-26T17:31:27.209Z,11.30
2019-06-26T17:34:00.040Z,11.77
2019-06-26T17:36:35.103Z,9.93
2019-06-26T17:39:07.585Z,11.52
2019-06-26T17:41:43.961Z,10.53
2019-06-26T17:44:23.310Z,10.57
2019-06-26T17:46:58.748Z,10.60
2019-06-26T17:49:32.643Z,10.53
2019-06-26T17:52:03.171Z,9.97
2019-06-26T17:54:37.127Z,9.77
2019-06-26T17:57:07.175Z,9.70
2019-06-26T17:59:39.329Z,9.85
2019-06-26T18:02:14.372Z,10.13
2019-06-26T18:04:46.507Z,9.43
2019-06-26T18:07:20.466Z,9.30
2019-06-26T18:09:53.816Z,10.10
2019-06-26T18:12:27.849Z,9.12
2019-06-26T18:14:57.822Z,9.18
2019-06-26T18:17:29.390Z,8.18
2019-06-26T18:20:00.671Z,8.60
2019-06-26T18:22:31.741Z,9.30
2019-06-26T18:25:05.834Z,8.13
2019-06-26T18:27:36.414Z,8.13
2019-06-26T18:30:08.274Z,8.20
2019-06-26T18:32:36.754Z,7.73
2019-06-26T18:35:05.537Z,7.07
2019-06-26T18:37:33.140Z,7.07
2019-06-26T18:40:00.955Z,7.20
2019-06-26T18:42:28.895Z,6.80
2019-06-26T18:44:57.131Z,7.68
2019-06-26T18:47:25.205Z,7.20
2019-06-26T18:49:52.866Z,6.60
2019-06-26T18:52:24.958Z,10.27
2019-06-26T18:54:53.422Z,7.10
2019-06-26T18:57:22.895Z,35.12
2019-06-26T18:59:55.049Z,7.80
2019-06-26T19:02:22.890Z,7.63
2019-06-26T19:04:54.039Z,6.03
2019-06-26T19:07:18.918Z,6.27
2019-06-26T19:09:46.756Z,5.53
2019-06-26T19:12:14.675Z,5.37
2019-06-26T19:14:45.939Z,5.30
2019-06-26T19:17:11.329Z,4.90
2019-06-26T19:19:39.194Z,4.57
2019-06-26T19:22:07.095Z,4.37
2019-06-26T19:24:39.312Z,5.00
2019-06-26T19:27:07.843Z,4.53
2019-06-26T19:29:35.051Z,4.00
2019-06-26T19:32:03.084Z,4.57
2019-06-26T19:34:31.662Z,4.13
2019-06-26T19:36:59.918Z,4.13
2019-06-26T19:39:27.722Z,4.70
2019-06-26T19:41:55.783Z,4.23
2019-06-26T19:44:23.557Z,3.90
2019-06-26T19:46:51.674Z,4.20
2019-06-26T19:49:20.116Z,3.93
2019-06-26T19:51:47.639Z,4.23
2019-06-26T19:54:27.081Z,3.93
2019-06-26T19:56:49.180Z,3.97
2019-06-26T19:59:16.952Z,3.77
2019-06-26T20:01:44.683Z,3.93
2019-06-26T20:04:12.358Z,3.90
2019-06-26T20:06:39.824Z,3.50
2019-06-26T20:09:07.276Z,4.10
2019-06-26T20:11:34.854Z,3.95
2019-06-26T20:14:02.357Z,3.60
2019-06-26T20:16:29.823Z,4.10
2019-06-26T20:18:57.295Z,3.72
2019-06-26T20:21:25.254Z,3.58
2019-06-26T20:23:53.817Z,4.07
2019-06-26T20:26:21.407Z,3.63
2019-06-26T20:28:50.483Z,3.83
2019-06-26T20:31:18.067Z,3.30
2019-06-26T20:33:52.314Z,3.10
2019-06-26T20:36:20.419Z,3.67
2019-06-26T20:38:47.941Z,3.67
2019-06-26T20:41:15.789Z,3.23
2019-06-26T20:43:43.367Z,3.13
2019-06-26T20:46:10.807Z,3.57
2019-06-26T20:48:38.419Z,3.90
2019-06-26T20:51:05.946Z,3.40
2019-06-26T20:53:33.392Z,3.25
2019-06-26T20:56:00.888Z,3.13
2019-06-26T20:58:28.341Z,2.83
2019-06-26T21:00:55.876Z,3.07
2019-06-26T21:03:23.343Z,2.97
2019-06-26T21:05:50.768Z,3.03
2019-06-26T21:08:18.348Z,2.80
2019-06-26T21:10:49.634Z,2.73
2019-06-26T21:13:16.984Z,3.03
2019-06-26T21:15:44.437Z,3.20
2019-06-26T21:18:12.219Z,3.28
2019-06-26T21:20:39.728Z,2.80
2019-06-26T21:23:17.789Z,3.20
2019-06-26T21:25:34.706Z,3.03
2019-06-26T21:28:03.192Z,2.90
2019-06-26T21:30:30.800Z,3.03
2019-06-26T21:32:58.265Z,2.53
2019-06-26T21:35:25.696Z,2.83
2019-06-26T21:37:53.671Z,3.47
2019-06-26T21:40:21.095Z,3.13
2019-06-26T21:42:48.543Z,2.90
2019-06-26T21:45:19.155Z,3.67
2019-06-26T21:47:43.551Z,3.07
2019-06-26T21:50:11.669Z,2.90
2019-06-26T21:52:39.158Z,2.78
2019-06-26T21:55:06.587Z,3.20
2019-06-26T21:57:34.054Z,3.30
2019-06-26T22:00:01.532Z,2.87
2019-06-26T22:02:28.989Z,3.00
2019-06-26T22:04:56.483Z,2.73
2019-06-26T22:07:24.320Z,3.08
2019-06-26T22:09:51.918Z,3.50
2019-06-26T22:12:19.374Z,2.80
2019-06-26T22:14:47.080Z,3.50
2019-06-26T22:17:15.302Z,3.50
2019-06-26T22:19:42.791Z,3.23
2019-06-26T22:22:10.234Z,3.33
2019-06-26T22:24:37.660Z,3.65
2019-06-26T22:27:05.296Z,3.17
2019-06-26T22:29:32.806Z,3.20
2019-06-26T22:32:00.247Z,2.97
2019-06-26T22:34:27.700Z,3.40
2019-06-26T22:36:55.271Z,3.33
2019-06-26T22:39:22.774Z,2.87
2019-06-26T22:41:50.762Z,3.63
2019-06-26T22:44:18.223Z,2.83
2019-06-26T22:46:45.663Z,3.77
2019-06-26T22:49:13.413Z,3.30
2019-06-26T22:51:43.109Z,3.30
2019-06-26T22:54:10.659Z,3.50
2019-06-26T22:56:39.618Z,3.30
2019-06-26T22:59:07.089Z,3.20
2019-06-26T23:01:34.595Z,2.87
2019-06-26T23:04:02.068Z,3.07
2019-06-26T23:06:30.660Z,3.30
2019-06-26T23:08:58.178Z,2.70
2019-06-26T23:11:25.643Z,3.23
2019-06-26T23:13:53.937Z,2.83
2019-06-26T23:16:21.487Z,3.10
2019-06-26T23:18:49.037Z,3.27
2019-06-26T23:21:16.555Z,3.00
2019-06-26T23:23:44.039Z,3.30
2019-06-26T23:26:23.579Z,2.97
2019-06-26T23:28:39.047Z,2.92
2019-06-26T23:31:06.520Z,3.27
2019-06-26T23:33:34.004Z,3.03
2019-06-26T23:36:02.443Z,3.50
2019-06-26T23:38:30.036Z,3.40
2019-06-26T23:40:57.540Z,3.30
2019-06-26T23:43:24.961Z,3.55
2019-06-26T23:45:52.438Z,3.43
2019-06-26T23:48:19.846Z,3.73
2019-06-26T23:50:47.542Z,3.43
2019-06-26T23:53:15.306Z,3.30
2019-06-26T23:55:42.756Z,3.67
2019-06-26T23:58:11.197Z,3.30
